Tastyp, Russia
Current Conditions -  °F | °C
As of 6:30 AM on Tuesday 23 Dec 2014 (Local Time) from UNAA Reporting Station
Haze Haze  
Wind Chill:   Ceiling: 9500
Heat Index:   Visibility: 0.93mi
Dew Point:   Wind: 2mph
Humidity: 85%   Direction: NA
Pressure: 30.39"   Gusts: NA
Location:  52.8°N, 89.92°E
Report Text: UNAA 222330Z VRB01MPS 1500 BR BKN095 M13/M15 Q1029 NOSIG RMKQFE749 52090060
Loading
Personal Weather Stations






























Interactive Weather Map New forecast layout! Learn more

10-Day Weather Forecast

Advertisements
Track Severe Weather on mobile